sensor_id;sensor_type;location;lat;lon;timestamp;P1;durP1;ratioP1;P2;durP2;ratioP2
77955;SDS011;67152;36.266;32.294;2023-04-01T00:01:26;3.75;;;1.58;;
77955;SDS011;67152;36.266;32.294;2023-04-01T00:03:53;4.07;;;1.90;;
77955;SDS011;67152;36.266;32.294;2023-04-01T00:06:20;2.53;;;0.93;;
77955;SDS011;67152;36.266;32.294;2023-04-01T00:08:47;2.55;;;0.98;;
77955;SDS011;67152;36.266;32.294;2023-04-01T00:11:14;3.38;;;0.95;;
77955;SDS011;67152;36.266;32.294;2023-04-01T00:13:41;4.00;;;1.30;;
77955;SDS011;67152;36.266;32.294;2023-04-01T00:16:08;3.65;;;1.02;;
77955;SDS011;67152;36.266;32.294;2023-04-01T00:18:35;1.87;;;1.03;;
77955;SDS011;67152;36.266;32.294;2023-04-01T00:21:02;1.58;;;1.00;;
77955;SDS011;67152;36.266;32.294;2023-04-01T00:23:29;3.08;;;1.42;;
77955;SDS011;67152;36.266;32.294;2023-04-01T00:25:58;3.55;;;1.17;;
77955;SDS011;67152;36.266;32.294;2023-04-01T00:28:26;2.47;;;0.90;;
77955;SDS011;67152;36.266;32.294;2023-04-01T00:30:53;2.53;;;1.10;;
77955;SDS011;67152;36.266;32.294;2023-04-01T00:33:20;5.00;;;1.33;;
77955;SDS011;67152;36.266;32.294;2023-04-01T00:35:47;3.72;;;1.20;;
77955;SDS011;67152;36.266;32.294;2023-04-01T00:38:14;7.10;;;1.67;;
77955;SDS011;67152;36.266;32.294;2023-04-01T00:40:43;3.65;;;1.25;;
77955;SDS011;67152;36.266;32.294;2023-04-01T00:43:12;3.83;;;1.65;;
77955;SDS011;67152;36.266;32.294;2023-04-01T00:45:42;5.32;;;1.65;;
77955;SDS011;67152;36.266;32.294;2023-04-01T00:48:11;3.58;;;1.42;;
77955;SDS011;67152;36.266;32.294;2023-04-01T00:50:42;1.90;;;1.10;;
77955;SDS011;67152;36.266;32.294;2023-04-01T00:53:15;4.57;;;1.83;;
77955;SDS011;67152;36.266;32.294;2023-04-01T00:55:44;6.97;;;1.67;;
77955;SDS011;67152;36.266;32.294;2023-04-01T00:58:16;3.58;;;1.65;;
77955;SDS011;67152;36.266;32.294;2023-04-01T01:00:45;2.60;;;1.52;;
77955;SDS011;67152;36.266;32.294;2023-04-01T01:03:13;3.25;;;1.33;;
77955;SDS011;67152;36.266;32.294;2023-04-01T01:08:18;4.80;;;1.92;;
77955;SDS011;67152;36.266;32.294;2023-04-01T01:11:03;8.43;;;2.03;;
77955;SDS011;67152;36.266;32.294;2023-04-01T01:13:36;4.45;;;1.52;;
77955;SDS011;67152;36.266;32.294;2023-04-01T01:16:36;1.52;;;0.98;;
77955;SDS011;67152;36.266;32.294;2023-04-01T01:28:32;3.65;;;1.30;;
77955;SDS011;67152;36.266;32.294;2023-04-01T01:36:31;6.22;;;2.30;;
77955;SDS011;67152;36.266;32.294;2023-04-01T01:39:01;4.15;;;1.77;;
77955;SDS011;67152;36.266;32.294;2023-04-01T01:41:32;6.55;;;2.42;;
77955;SDS011;67152;36.266;32.294;2023-04-01T01:43:59;4.10;;;1.58;;
77955;SDS011;67152;36.266;32.294;2023-04-01T01:46:26;7.30;;;2.27;;
77955;SDS011;67152;36.266;32.294;2023-04-01T01:48:54;4.93;;;1.90;;
77955;SDS011;67152;36.266;32.294;2023-04-01T01:51:21;4.07;;;2.47;;
77955;SDS011;67152;36.266;32.294;2023-04-01T01:53:48;4.20;;;2.13;;
77955;SDS011;67152;36.266;32.294;2023-04-01T01:56:15;3.13;;;2.03;;
77955;SDS011;67152;36.266;32.294;2023-04-01T01:58:50;6.22;;;2.35;;
77955;SDS011;67152;36.266;32.294;2023-04-01T02:01:26;6.47;;;2.15;;
77955;SDS011;67152;36.266;32.294;2023-04-01T02:03:54;7.00;;;2.35;;
77955;SDS011;67152;36.266;32.294;2023-04-01T02:06:23;7.03;;;2.22;;
77955;SDS011;67152;36.266;32.294;2023-04-01T02:08:53;3.63;;;1.73;;
77955;SDS011;67152;36.266;32.294;2023-04-01T02:11:33;5.93;;;2.22;;
77955;SDS011;67152;36.266;32.294;2023-04-01T02:14:15;5.03;;;1.98;;
77955;SDS011;67152;36.266;32.294;2023-04-01T02:17:05;9.88;;;1.77;;
77955;SDS011;67152;36.266;32.294;2023-04-01T02:19:55;6.88;;;2.03;;
77955;SDS011;67152;36.266;32.294;2023-04-01T02:22:29;3.10;;;1.58;;
77955;SDS011;67152;36.266;32.294;2023-04-01T02:24:59;7.35;;;2.10;;
77955;SDS011;67152;36.266;32.294;2023-04-01T02:27:29;4.93;;;1.45;;
77955;SDS011;67152;36.266;32.294;2023-04-01T02:29:57;9.02;;;0.95;;
77955;SDS011;67152;36.266;32.294;2023-04-01T02:32:24;2.90;;;1.10;;
77955;SDS011;67152;36.266;32.294;2023-04-01T02:34:51;1.15;;;0.88;;
77955;SDS011;67152;36.266;32.294;2023-04-01T02:37:18;2.70;;;1.10;;
77955;SDS011;67152;36.266;32.294;2023-04-01T02:39:45;1.25;;;0.80;;
77955;SDS011;67152;36.266;32.294;2023-04-01T02:42:13;4.93;;;1.33;;
77955;SDS011;67152;36.266;32.294;2023-04-01T02:44:40;5.05;;;1.05;;
77955;SDS011;67152;36.266;32.294;2023-04-01T02:47:07;2.03;;;1.05;;
77955;SDS011;67152;36.266;32.294;2023-04-01T02:49:33;2.50;;;1.40;;
77955;SDS011;67152;36.266;32.294;2023-04-01T02:52:00;3.28;;;1.35;;
77955;SDS011;67152;36.266;32.294;2023-04-01T02:54:27;3.28;;;1.02;;
77955;SDS011;67152;36.266;32.294;2023-04-01T02:56:54;3.28;;;1.52;;
77955;SDS011;67152;36.266;32.294;2023-04-01T02:59:20;3.13;;;1.75;;
77955;SDS011;67152;36.266;32.294;2023-04-01T03:01:47;1.85;;;0.85;;
77955;SDS011;67152;36.266;32.294;2023-04-01T03:04:14;3.33;;;1.25;;
77955;SDS011;67152;36.266;32.294;2023-04-01T03:06:41;6.72;;;1.58;;
77955;SDS011;67152;36.266;32.294;2023-04-01T03:09:07;10.18;;;1.30;;
77955;SDS011;67152;36.266;32.294;2023-04-01T03:11:34;3.67;;;1.20;;
77955;SDS011;67152;36.266;32.294;2023-04-01T03:14:01;1.67;;;0.90;;
77955;SDS011;67152;36.266;32.294;2023-04-01T03:16:28;1.85;;;0.90;;
77955;SDS011;67152;36.266;32.294;2023-04-01T03:18:55;1.23;;;0.68;;
77955;SDS011;67152;36.266;32.294;2023-04-01T03:21:25;2.53;;;1.05;;
77955;SDS011;67152;36.266;32.294;2023-04-01T03:23:51;1.47;;;0.87;;
77955;SDS011;67152;36.266;32.294;2023-04-01T03:26:18;2.53;;;1.15;;
77955;SDS011;67152;36.266;32.294;2023-04-01T03:28:45;4.93;;;1.30;;
77955;SDS011;67152;36.266;32.294;2023-04-01T03:31:12;4.15;;;1.60;;
77955;SDS011;67152;36.266;32.294;2023-04-01T03:33:40;4.25;;;1.77;;
77955;SDS011;67152;36.266;32.294;2023-04-01T03:36:07;4.80;;;1.57;;
77955;SDS011;67152;36.266;32.294;2023-04-01T03:38:34;4.10;;;1.27;;
77955;SDS011;67152;36.266;32.294;2023-04-01T03:41:01;5.25;;;1.88;;
77955;SDS011;67152;36.266;32.294;2023-04-01T03:43:28;7.53;;;2.10;;
77955;SDS011;67152;36.266;32.294;2023-04-01T03:45:55;5.63;;;2.13;;
77955;SDS011;67152;36.266;32.294;2023-04-01T03:48:24;4.57;;;1.80;;
77955;SDS011;67152;36.266;32.294;2023-04-01T03:50:51;11.70;;;2.80;;
77955;SDS011;67152;36.266;32.294;2023-04-01T03:53:18;4.10;;;1.30;;
77955;SDS011;67152;36.266;32.294;2023-04-01T03:55:45;18.77;;;2.78;;
77955;SDS011;67152;36.266;32.294;2023-04-01T03:58:12;5.83;;;1.57;;
77955;SDS011;67152;36.266;32.294;2023-04-01T04:00:39;5.20;;;2.40;;
77955;SDS011;67152;36.266;32.294;2023-04-01T04:03:06;9.15;;;3.25;;
77955;SDS011;67152;36.266;32.294;2023-04-01T04:05:33;2.85;;;1.73;;
77955;SDS011;67152;36.266;32.294;2023-04-01T04:08:00;10.90;;;2.35;;
77955;SDS011;67152;36.266;32.294;2023-04-01T04:10:27;6.22;;;3.22;;
77955;SDS011;67152;36.266;32.294;2023-04-01T04:15:21;7.85;;;2.40;;
77955;SDS011;67152;36.266;32.294;2023-04-01T04:17:48;5.32;;;2.72;;
77955;SDS011;67152;36.266;32.294;2023-04-01T04:20:15;14.77;;;3.40;;
77955;SDS011;67152;36.266;32.294;2023-04-01T04:22:42;6.95;;;2.92;;
77955;SDS011;67152;36.266;32.294;2023-04-01T04:25:08;6.72;;;2.22;;
77955;SDS011;67152;36.266;32.294;2023-04-01T04:27:36;10.05;;;3.05;;
77955;SDS011;67152;36.266;32.294;2023-04-01T04:30:03;6.93;;;2.72;;
77955;SDS011;67152;36.266;32.294;2023-04-01T04:32:31;9.65;;;3.55;;
77955;SDS011;67152;36.266;32.294;2023-04-01T04:34:57;10.05;;;3.35;;
77955;SDS011;67152;36.266;32.294;2023-04-01T04:37:24;10.90;;;4.63;;
77955;SDS011;67152;36.266;32.294;2023-04-01T04:39:51;13.55;;;3.90;;
77955;SDS011;67152;36.266;32.294;2023-04-01T04:42:18;8.05;;;3.15;;
77955;SDS011;67152;36.266;32.294;2023-04-01T04:44:45;8.32;;;3.38;;
77955;SDS011;67152;36.266;32.294;2023-04-01T04:47:12;17.10;;;3.77;;
77955;SDS011;67152;36.266;32.294;2023-04-01T04:49:38;8.47;;;3.60;;
77955;SDS011;67152;36.266;32.294;2023-04-01T04:52:05;16.70;;;4.17;;
77955;SDS011;67152;36.266;32.294;2023-04-01T04:54:32;11.60;;;3.55;;
77955;SDS011;67152;36.266;32.294;2023-04-01T04:56:59;10.82;;;4.53;;
77955;SDS011;67152;36.266;32.294;2023-04-01T04:59:29;10.73;;;3.85;;
77955;SDS011;67152;36.266;32.294;2023-04-01T05:01:56;12.32;;;3.47;;
77955;SDS011;67152;36.266;32.294;2023-04-01T05:04:23;15.63;;;3.35;;
77955;SDS011;67152;36.266;32.294;2023-04-01T05:06:50;12.60;;;3.70;;
77955;SDS011;67152;36.266;32.294;2023-04-01T05:09:17;10.00;;;4.68;;
77955;SDS011;67152;36.266;32.294;2023-04-01T05:11:44;12.40;;;4.22;;
77955;SDS011;67152;36.266;32.294;2023-04-01T05:14:14;11.57;;;3.60;;
77955;SDS011;67152;36.266;32.294;2023-04-01T05:16:41;16.08;;;4.53;;
77955;SDS011;67152;36.266;32.294;2023-04-01T05:19:08;17.95;;;3.97;;
77955;SDS011;67152;36.266;32.294;2023-04-01T05:21:35;13.98;;;4.07;;
77955;SDS011;67152;36.266;32.294;2023-04-01T05:24:02;22.33;;;3.73;;
77955;SDS011;67152;36.266;32.294;2023-04-01T05:26:31;12.00;;;4.38;;
77955;SDS011;67152;36.266;32.294;2023-04-01T05:28:58;13.40;;;3.95;;
77955;SDS011;67152;36.266;32.294;2023-04-01T05:31:25;17.45;;;3.65;;
77955;SDS011;67152;36.266;32.294;2023-04-01T05:33:52;14.82;;;4.07;;
77955;SDS011;67152;36.266;32.294;2023-04-01T05:36:20;10.70;;;2.97;;
77955;SDS011;67152;36.266;32.294;2023-04-01T05:38:47;7.47;;;3.38;;
77955;SDS011;67152;36.266;32.294;2023-04-01T05:41:14;10.38;;;3.17;;
77955;SDS011;67152;36.266;32.294;2023-04-01T05:43:41;15.68;;;3.05;;
77955;SDS011;67152;36.266;32.294;2023-04-01T05:46:08;8.23;;;2.30;;
77955;SDS011;67152;36.266;32.294;2023-04-01T05:48:35;14.13;;;3.05;;
77955;SDS011;67152;36.266;32.294;2023-04-01T05:51:02;30.52;;;3.70;;
77955;SDS011;67152;36.266;32.294;2023-04-01T05:53:29;13.25;;;3.58;;
77955;SDS011;67152;36.266;32.294;2023-04-01T05:55:56;20.25;;;3.28;;
77955;SDS011;67152;36.266;32.294;2023-04-01T05:58:23;14.43;;;3.33;;
77955;SDS011;67152;36.266;32.294;2023-04-01T06:00:50;11.75;;;3.55;;
77955;SDS011;67152;36.266;32.294;2023-04-01T06:03:17;25.05;;;3.20;;
77955;SDS011;67152;36.266;32.294;2023-04-01T06:05:43;10.73;;;2.72;;
77955;SDS011;67152;36.266;32.294;2023-04-01T06:08:17;6.28;;;2.85;;
77955;SDS011;67152;36.266;32.294;2023-04-01T06:30:31;7.93;;;2.22;;
77955;SDS011;67152;36.266;32.294;2023-04-01T06:45:43;17.10;;;2.53;;
77955;SDS011;67152;36.266;32.294;2023-04-01T06:54:24;11.85;;;3.05;;
77955;SDS011;67152;36.266;32.294;2023-04-01T06:59:49;10.88;;;2.35;;
77955;SDS011;67152;36.266;32.294;2023-04-01T07:02:41;12.40;;;2.80;;
77955;SDS011;67152;36.266;32.294;2023-04-01T07:05:10;12.43;;;2.53;;
77955;SDS011;67152;36.266;32.294;2023-04-01T07:07:41;9.57;;;2.25;;
77955;SDS011;67152;36.266;32.294;2023-04-01T07:10:13;12.75;;;2.58;;
77955;SDS011;67152;36.266;32.294;2023-04-01T07:12:50;18.08;;;3.03;;
77955;SDS011;67152;36.266;32.294;2023-04-01T07:15:42;9.55;;;2.13;;
77955;SDS011;67152;36.266;32.294;2023-04-01T07:20:39;8.95;;;2.78;;
77955;SDS011;67152;36.266;32.294;2023-04-01T07:23:08;11.18;;;2.83;;
77955;SDS011;67152;36.266;32.294;2023-04-01T07:25:44;8.98;;;2.63;;
77955;SDS011;67152;36.266;32.294;2023-04-01T07:28:12;12.55;;;2.60;;
77955;SDS011;67152;36.266;32.294;2023-04-01T07:36:14;7.88;;;2.22;;
77955;SDS011;67152;36.266;32.294;2023-04-01T07:55:03;11.05;;;2.50;;
77955;SDS011;67152;36.266;32.294;2023-04-01T08:05:41;13.40;;;2.38;;
77955;SDS011;67152;36.266;32.294;2023-04-01T08:10:42;20.35;;;3.05;;
77955;SDS011;67152;36.266;32.294;2023-04-01T08:16:30;23.80;;;2.92;;
77955;SDS011;67152;36.266;32.294;2023-04-01T08:19:09;25.80;;;2.33;;
77955;SDS011;67152;36.266;32.294;2023-04-01T08:21:49;11.18;;;2.35;;
77955;SDS011;67152;36.266;32.294;2023-04-01T08:24:26;9.02;;;2.40;;
77955;SDS011;67152;36.266;32.294;2023-04-01T08:26:57;9.90;;;1.90;;
77955;SDS011;67152;36.266;32.294;2023-04-01T08:29:31;8.73;;;1.77;;
77955;SDS011;67152;36.266;32.294;2023-04-01T08:32:09;9.02;;;2.30;;
77955;SDS011;67152;36.266;32.294;2023-04-01T08:34:39;10.32;;;2.50;;
77955;SDS011;67152;36.266;32.294;2023-04-01T08:37:11;32.33;;;3.25;;
77955;SDS011;67152;36.266;32.294;2023-04-01T09:05:08;9.25;;;2.50;;
77955;SDS011;67152;36.266;32.294;2023-04-01T09:08:18;7.90;;;2.22;;
77955;SDS011;67152;36.266;32.294;2023-04-01T09:22:41;12.10;;;2.67;;
77955;SDS011;67152;36.266;32.294;2023-04-01T09:33:43;13.55;;;2.92;;
77955;SDS011;67152;36.266;32.294;2023-04-01T09:36:33;14.77;;;2.53;;
77955;SDS011;67152;36.266;32.294;2023-04-01T09:44:57;11.05;;;2.25;;
77955;SDS011;67152;36.266;32.294;2023-04-01T09:50:41;10.45;;;2.42;;
77955;SDS011;67152;36.266;32.294;2023-04-01T09:56:01;8.48;;;2.35;;
77955;SDS011;67152;36.266;32.294;2023-04-01T10:15:55;11.80;;;2.65;;
77955;SDS011;67152;36.266;32.294;2023-04-01T10:21:16;12.93;;;2.25;;
77955;SDS011;67152;36.266;32.294;2023-04-01T10:29:03;13.20;;;2.20;;
77955;SDS011;67152;36.266;32.294;2023-04-01T10:46:21;15.45;;;2.03;;
77955;SDS011;67152;36.266;32.294;2023-04-01T11:13:21;16.55;;;2.33;;
77955;SDS011;67152;36.266;32.294;2023-04-01T11:29:43;11.85;;;2.35;;
77955;SDS011;67152;36.266;32.294;2023-04-01T11:32:18;11.85;;;2.42;;
77955;SDS011;67152;36.266;32.294;2023-04-01T11:40:35;11.18;;;2.30;;
77955;SDS011;67152;36.266;32.294;2023-04-01T11:48:51;10.45;;;2.10;;
77955;SDS011;67152;36.266;32.294;2023-04-01T12:09:04;14.50;;;2.58;;
77955;SDS011;67152;36.266;32.294;2023-04-01T12:11:41;11.38;;;2.28;;
77955;SDS011;67152;36.266;32.294;2023-04-01T12:14:43;31.30;;;3.10;;
77955;SDS011;67152;36.266;32.294;2023-04-01T12:35:03;11.73;;;2.90;;
77955;SDS011;67152;36.266;32.294;2023-04-01T12:48:50;22.63;;;3.53;;
77955;SDS011;67152;36.266;32.294;2023-04-01T13:04:54;12.73;;;2.80;;
77955;SDS011;67152;36.266;32.294;2023-04-01T13:07:46;15.82;;;3.17;;
77955;SDS011;67152;36.266;32.294;2023-04-01T13:13:44;23.17;;;3.35;;
77955;SDS011;67152;36.266;32.294;2023-04-01T13:16:31;13.90;;;2.95;;
77955;SDS011;67152;36.266;32.294;2023-04-01T13:25:04;15.15;;;2.70;;
77955;SDS011;67152;36.266;32.294;2023-04-01T13:27:49;13.80;;;2.45;;
77955;SDS011;67152;36.266;32.294;2023-04-01T13:31:02;12.60;;;2.72;;
77955;SDS011;67152;36.266;32.294;2023-04-01T14:07:47;20.50;;;3.25;;
77955;SDS011;67152;36.266;32.294;2023-04-01T14:29:52;17.60;;;3.08;;
77955;SDS011;67152;36.266;32.294;2023-04-01T14:49:53;15.85;;;2.75;;
77955;SDS011;67152;36.266;32.294;2023-04-01T14:58:25;22.23;;;3.78;;
77955;SDS011;67152;36.266;32.294;2023-04-01T15:01:11;22.95;;;3.08;;
77955;SDS011;67152;36.266;32.294;2023-04-01T15:31:09;15.48;;;3.20;;
77955;SDS011;67152;36.266;32.294;2023-04-01T15:37:04;26.90;;;3.25;;
77955;SDS011;67152;36.266;32.294;2023-04-01T15:39:57;17.80;;;3.28;;
77955;SDS011;67152;36.266;32.294;2023-04-01T15:56:19;22.98;;;3.92;;
77955;SDS011;67152;36.266;32.294;2023-04-01T16:07:17;21.55;;;4.40;;
77955;SDS011;67152;36.266;32.294;2023-04-01T16:15:14;17.08;;;3.50;;
77955;SDS011;67152;36.266;32.294;2023-04-01T16:18:03;26.25;;;3.75;;
77955;SDS011;67152;36.266;32.294;2023-04-01T16:23:56;30.20;;;4.72;;
77955;SDS011;67152;36.266;32.294;2023-04-01T16:31:49;33.78;;;7.03;;
77955;SDS011;67152;36.266;32.294;2023-04-01T16:34:25;24.70;;;5.15;;
77955;SDS011;67152;36.266;32.294;2023-04-01T16:42:51;40.88;;;8.63;;
77955;SDS011;67152;36.266;32.294;2023-04-01T16:47:50;38.83;;;9.05;;
77955;SDS011;67152;36.266;32.294;2023-04-01T16:53:00;28.38;;;6.07;;
77955;SDS011;67152;36.266;32.294;2023-04-01T16:55:41;23.80;;;7.75;;
77955;SDS011;67152;36.266;32.294;2023-04-01T16:58:24;35.35;;;7.85;;
77955;SDS011;67152;36.266;32.294;2023-04-01T17:04:30;50.78;;;12.13;;
77955;SDS011;67152;36.266;32.294;2023-04-01T17:07:04;48.22;;;10.27;;
77955;SDS011;67152;36.266;32.294;2023-04-01T17:09:56;37.58;;;9.85;;
77955;SDS011;67152;36.266;32.294;2023-04-01T17:29:57;31.90;;;9.15;;
77955;SDS011;67152;36.266;32.294;2023-04-01T17:44:23;40.50;;;13.88;;
77955;SDS011;67152;36.266;32.294;2023-04-01T18:01:09;69.88;;;13.80;;
77955;SDS011;67152;36.266;32.294;2023-04-01T18:12:27;81.90;;;22.77;;
77955;SDS011;67152;36.266;32.294;2023-04-01T18:15:04;89.80;;;31.13;;
77955;SDS011;67152;36.266;32.294;2023-04-01T18:18:05;85.38;;;27.25;;
77955;SDS011;67152;36.266;32.294;2023-04-01T18:23:39;63.55;;;26.75;;
77955;SDS011;67152;36.266;32.294;2023-04-01T18:26:34;67.50;;;27.58;;
77955;SDS011;67152;36.266;32.294;2023-04-01T18:29:26;60.53;;;22.02;;
77955;SDS011;67152;36.266;32.294;2023-04-01T18:35:08;49.35;;;19.13;;
77955;SDS011;67152;36.266;32.294;2023-04-01T18:40:54;71.30;;;26.30;;
77955;SDS011;67152;36.266;32.294;2023-04-01T18:49:21;62.50;;;27.13;;
77955;SDS011;67152;36.266;32.294;2023-04-01T18:51:55;61.78;;;27.30;;
77955;SDS011;67152;36.266;32.294;2023-04-01T18:54:29;58.47;;;26.52;;
77955;SDS011;67152;36.266;32.294;2023-04-01T18:57:17;76.50;;;28.65;;
77955;SDS011;67152;36.266;32.294;2023-04-01T18:59:52;85.55;;;29.88;;
77955;SDS011;67152;36.266;32.294;2023-04-01T19:05:07;78.78;;;26.83;;
77955;SDS011;67152;36.266;32.294;2023-04-01T19:13:16;45.13;;;22.33;;
77955;SDS011;67152;36.266;32.294;2023-04-01T19:21:10;48.55;;;21.08;;
77955;SDS011;67152;36.266;32.294;2023-04-01T19:51:52;23.70;;;6.00;;
77955;SDS011;67152;36.266;32.294;2023-04-01T20:08:15;24.75;;;8.02;;
77955;SDS011;67152;36.266;32.294;2023-04-01T20:19:25;22.40;;;7.35;;
77955;SDS011;67152;36.266;32.294;2023-04-01T20:27:38;22.10;;;6.35;;
77955;SDS011;67152;36.266;32.294;2023-04-01T20:30:15;24.27;;;5.15;;
77955;SDS011;67152;36.266;32.294;2023-04-01T20:33:17;16.55;;;4.68;;
77955;SDS011;67152;36.266;32.294;2023-04-01T20:43:58;25.08;;;5.43;;
77955;SDS011;67152;36.266;32.294;2023-04-01T20:54:44;29.48;;;5.85;;
77955;SDS011;67152;36.266;32.294;2023-04-01T20:57:36;24.20;;;6.13;;
77955;SDS011;67152;36.266;32.294;2023-04-01T21:36:16;24.15;;;9.25;;
77955;SDS011;67152;36.266;32.294;2023-04-01T22:09:45;20.90;;;6.03;;
77955;SDS011;67152;36.266;32.294;2023-04-01T22:12:35;18.70;;;4.93;;
77955;SDS011;67152;36.266;32.294;2023-04-01T22:18:06;21.38;;;5.45;;
77955;SDS011;67152;36.266;32.294;2023-04-01T22:20:42;23.42;;;6.05;;
77955;SDS011;67152;36.266;32.294;2023-04-01T22:25:56;24.90;;;5.67;;
77955;SDS011;67152;36.266;32.294;2023-04-01T22:31:31;18.42;;;5.22;;
77955;SDS011;67152;36.266;32.294;2023-04-01T22:34:10;30.27;;;6.65;;
77955;SDS011;67152;36.266;32.294;2023-04-01T22:44:51;26.65;;;7.55;;
77955;SDS011;67152;36.266;32.294;2023-04-01T22:52:43;20.63;;;6.30;;
77955;SDS011;67152;36.266;32.294;2023-04-01T22:55:19;22.83;;;5.55;;
77955;SDS011;67152;36.266;32.294;2023-04-01T22:57:51;19.83;;;3.50;;
77955;SDS011;67152;36.266;32.294;2023-04-01T23:00:30;17.67;;;3.45;;
77955;SDS011;67152;36.266;32.294;2023-04-01T23:06:01;16.65;;;3.92;;
77955;SDS011;67152;36.266;32.294;2023-04-01T23:27:27;21.23;;;4.50;;
77955;SDS011;67152;36.266;32.294;2023-04-01T23:30:00;15.75;;;4.38;;
77955;SDS011;67152;36.266;32.294;2023-04-01T23:32:27;19.05;;;4.70;;
77955;SDS011;67152;36.266;32.294;2023-04-01T23:34:56;23.67;;;5.72;;
77955;SDS011;67152;36.266;32.294;2023-04-01T23:37:24;17.10;;;3.70;;
77955;SDS011;67152;36.266;32.294;2023-04-01T23:39:53;21.25;;;5.07;;
77955;SDS011;67152;36.266;32.294;2023-04-01T23:42:25;19.70;;;4.63;;
77955;SDS011;67152;36.266;32.294;2023-04-01T23:45:02;14.63;;;4.03;;
77955;SDS011;67152;36.266;32.294;2023-04-01T23:47:31;17.80;;;4.22;;
77955;SDS011;67152;36.266;32.294;2023-04-01T23:50:03;15.15;;;4.57;;
77955;SDS011;67152;36.266;32.294;2023-04-01T23:52:59;15.02;;;3.80;;
77955;SDS011;67152;36.266;32.294;2023-04-01T23:55:43;21.70;;;4.32;;
77955;SDS011;67152;36.266;32.294;2023-04-01T23:58:23;11.43;;;3.17;;
